sensor_id;sensor_type;location;lat;lon;timestamp;P1;durP1;ratioP1;P2;durP2;ratioP2
41275;SDS011;27010;47.718;12.912;2023-04-24T00:00:14;1.70;;;1.20;;
41275;SDS011;27010;47.718;12.912;2023-04-24T00:03:17;1.20;;;1.00;;
41275;SDS011;27010;47.718;12.912;2023-04-24T00:06:23;2.00;;;0.70;;
41275;SDS011;27010;47.718;12.912;2023-04-24T00:09:25;1.47;;;1.13;;
41275;SDS011;27010;47.718;12.912;2023-04-24T00:12:28;1.03;;;0.70;;
41275;SDS011;27010;47.718;12.912;2023-04-24T00:15:30;0.90;;;0.67;;
41275;SDS011;27010;47.718;12.912;2023-04-24T00:18:32;1.60;;;0.90;;
41275;SDS011;27010;47.718;12.912;2023-04-24T00:21:34;2.40;;;0.53;;
41275;SDS011;27010;47.718;12.912;2023-04-24T00:24:36;0.80;;;0.70;;
41275;SDS011;27010;47.718;12.912;2023-04-24T00:27:38;1.47;;;1.03;;
41275;SDS011;27010;47.718;12.912;2023-04-24T00:30:40;1.30;;;1.20;;
41275;SDS011;27010;47.718;12.912;2023-04-24T00:33:42;0.80;;;0.70;;
41275;SDS011;27010;47.718;12.912;2023-04-24T00:36:45;1.10;;;0.60;;
41275;SDS011;27010;47.718;12.912;2023-04-24T00:39:47;4.73;;;0.60;;
41275;SDS011;27010;47.718;12.912;2023-04-24T00:42:50;1.53;;;0.50;;
41275;SDS011;27010;47.718;12.912;2023-04-24T00:45:52;0.30;;;0.30;;
41275;SDS011;27010;47.718;12.912;2023-04-24T00:48:55;0.50;;;0.30;;
41275;SDS011;27010;47.718;12.912;2023-04-24T00:51:57;0.30;;;0.30;;
41275;SDS011;27010;47.718;12.912;2023-04-24T00:55:01;1.13;;;0.40;;
41275;SDS011;27010;47.718;12.912;2023-04-24T00:58:04;0.30;;;0.30;;
41275;SDS011;27010;47.718;12.912;2023-04-24T01:01:06;1.80;;;0.30;;
41275;SDS011;27010;47.718;12.912;2023-04-24T01:04:09;0.50;;;0.40;;
41275;SDS011;27010;47.718;12.912;2023-04-24T01:07:12;4.10;;;0.37;;
41275;SDS011;27010;47.718;12.912;2023-04-24T01:10:14;0.87;;;0.30;;
41275;SDS011;27010;47.718;12.912;2023-04-24T01:13:20;0.57;;;0.40;;
41275;SDS011;27010;47.718;12.912;2023-04-24T01:16:22;1.03;;;0.50;;
41275;SDS011;27010;47.718;12.912;2023-04-24T01:19:25;0.57;;;0.40;;
41275;SDS011;27010;47.718;12.912;2023-04-24T01:22:27;0.73;;;0.50;;
41275;SDS011;27010;47.718;12.912;2023-04-24T01:25:29;0.60;;;0.60;;
41275;SDS011;27010;47.718;12.912;2023-04-24T01:28:31;1.90;;;0.53;;
41275;SDS011;27010;47.718;12.912;2023-04-24T01:31:33;0.70;;;0.50;;
41275;SDS011;27010;47.718;12.912;2023-04-24T01:34:36;1.70;;;0.30;;
41275;SDS011;27010;47.718;12.912;2023-04-24T01:37:38;0.37;;;0.30;;
41275;SDS011;27010;47.718;12.912;2023-04-24T01:40:40;0.80;;;0.40;;
41275;SDS011;27010;47.718;12.912;2023-04-24T01:43:43;2.20;;;1.77;;
41275;SDS011;27010;47.718;12.912;2023-04-24T01:46:45;0.60;;;0.50;;
41275;SDS011;27010;47.718;12.912;2023-04-24T01:49:49;0.50;;;0.30;;
41275;SDS011;27010;47.718;12.912;2023-04-24T01:52:51;0.40;;;0.40;;
41275;SDS011;27010;47.718;12.912;2023-04-24T01:55:54;1.27;;;0.50;;
41275;SDS011;27010;47.718;12.912;2023-04-24T01:58:56;0.70;;;0.40;;
41275;SDS011;27010;47.718;12.912;2023-04-24T02:01:59;0.40;;;0.30;;
41275;SDS011;27010;47.718;12.912;2023-04-24T02:05:01;0.40;;;0.30;;
41275;SDS011;27010;47.718;12.912;2023-04-24T02:08:04;0.33;;;0.30;;
41275;SDS011;27010;47.718;12.912;2023-04-24T02:11:06;0.53;;;0.53;;
41275;SDS011;27010;47.718;12.912;2023-04-24T02:14:10;1.93;;;0.63;;
41275;SDS011;27010;47.718;12.912;2023-04-24T02:17:12;0.73;;;0.50;;
41275;SDS011;27010;47.718;12.912;2023-04-24T02:20:16;0.70;;;0.47;;
41275;SDS011;27010;47.718;12.912;2023-04-24T02:23:19;2.00;;;0.30;;
41275;SDS011;27010;47.718;12.912;2023-04-24T02:26:21;0.80;;;0.50;;
41275;SDS011;27010;47.718;12.912;2023-04-24T02:29:23;1.03;;;0.70;;
41275;SDS011;27010;47.718;12.912;2023-04-24T02:32:26;1.03;;;0.60;;
41275;SDS011;27010;47.718;12.912;2023-04-24T02:35:27;2.83;;;0.50;;
41275;SDS011;27010;47.718;12.912;2023-04-24T02:38:29;0.50;;;0.50;;
41275;SDS011;27010;47.718;12.912;2023-04-24T02:41:31;0.40;;;0.30;;
41275;SDS011;27010;47.718;12.912;2023-04-24T02:44:34;0.70;;;0.40;;
41275;SDS011;27010;47.718;12.912;2023-04-24T02:47:36;0.97;;;0.40;;
41275;SDS011;27010;47.718;12.912;2023-04-24T02:50:39;0.70;;;0.30;;
41275;SDS011;27010;47.718;12.912;2023-04-24T02:53:42;1.07;;;0.40;;
41275;SDS011;27010;47.718;12.912;2023-04-24T02:56:43;0.50;;;0.30;;
41275;SDS011;27010;47.718;12.912;2023-04-24T02:59:45;0.80;;;0.40;;
41275;SDS011;27010;47.718;12.912;2023-04-24T03:02:47;0.63;;;0.40;;
41275;SDS011;27010;47.718;12.912;2023-04-24T03:05:51;0.93;;;0.40;;
41275;SDS011;27010;47.718;12.912;2023-04-24T03:08:54;0.43;;;0.40;;
41275;SDS011;27010;47.718;12.912;2023-04-24T03:11:57;1.00;;;0.83;;
41275;SDS011;27010;47.718;12.912;2023-04-24T03:14:59;6.27;;;1.00;;
41275;SDS011;27010;47.718;12.912;2023-04-24T03:18:01;1.03;;;0.50;;
41275;SDS011;27010;47.718;12.912;2023-04-24T03:21:04;0.60;;;0.43;;
41275;SDS011;27010;47.718;12.912;2023-04-24T03:24:07;1.10;;;0.50;;
41275;SDS011;27010;47.718;12.912;2023-04-24T03:27:10;1.87;;;0.57;;
41275;SDS011;27010;47.718;12.912;2023-04-24T03:30:12;2.87;;;0.50;;
41275;SDS011;27010;47.718;12.912;2023-04-24T03:33:14;2.20;;;0.53;;
41275;SDS011;27010;47.718;12.912;2023-04-24T03:36:16;0.97;;;0.40;;
41275;SDS011;27010;47.718;12.912;2023-04-24T03:39:19;1.93;;;0.60;;
41275;SDS011;27010;47.718;12.912;2023-04-24T03:42:21;0.37;;;0.37;;
41275;SDS011;27010;47.718;12.912;2023-04-24T03:45:23;0.70;;;0.70;;
41275;SDS011;27010;47.718;12.912;2023-04-24T03:48:25;0.60;;;0.40;;
41275;SDS011;27010;47.718;12.912;2023-04-24T03:51:28;0.80;;;0.30;;
41275;SDS011;27010;47.718;12.912;2023-04-24T03:54:31;1.50;;;0.60;;
41275;SDS011;27010;47.718;12.912;2023-04-24T03:57:33;0.20;;;0.20;;
41275;SDS011;27010;47.718;12.912;2023-04-24T04:00:35;2.27;;;0.40;;
41275;SDS011;27010;47.718;12.912;2023-04-24T04:03:38;1.47;;;0.40;;
41275;SDS011;27010;47.718;12.912;2023-04-24T04:06:42;4.00;;;1.23;;
41275;SDS011;27010;47.718;12.912;2023-04-24T04:09:45;1.40;;;0.40;;
41275;SDS011;27010;47.718;12.912;2023-04-24T04:12:47;1.70;;;0.40;;
41275;SDS011;27010;47.718;12.912;2023-04-24T04:15:49;1.90;;;0.40;;
41275;SDS011;27010;47.718;12.912;2023-04-24T04:18:51;0.40;;;0.40;;
41275;SDS011;27010;47.718;12.912;2023-04-24T04:21:53;4.10;;;2.77;;
41275;SDS011;27010;47.718;12.912;2023-04-24T04:24:57;0.77;;;0.60;;
41275;SDS011;27010;47.718;12.912;2023-04-24T04:27:59;0.53;;;0.37;;
41275;SDS011;27010;47.718;12.912;2023-04-24T04:31:01;0.67;;;0.60;;
41275;SDS011;27010;47.718;12.912;2023-04-24T04:34:04;0.80;;;0.50;;
41275;SDS011;27010;47.718;12.912;2023-04-24T04:37:05;0.40;;;0.40;;
41275;SDS011;27010;47.718;12.912;2023-04-24T04:40:08;1.37;;;0.50;;
41275;SDS011;27010;47.718;12.912;2023-04-24T04:43:13;2.00;;;0.50;;
41275;SDS011;27010;47.718;12.912;2023-04-24T04:46:16;1.20;;;0.60;;
41275;SDS011;27010;47.718;12.912;2023-04-24T04:49:19;1.57;;;0.47;;
41275;SDS011;27010;47.718;12.912;2023-04-24T04:52:22;1.73;;;0.70;;
41275;SDS011;27010;47.718;12.912;2023-04-24T04:55:26;3.93;;;0.70;;
41275;SDS011;27010;47.718;12.912;2023-04-24T04:58:29;1.90;;;0.90;;
41275;SDS011;27010;47.718;12.912;2023-04-24T05:01:31;2.77;;;0.50;;
41275;SDS011;27010;47.718;12.912;2023-04-24T05:04:32;1.07;;;0.40;;
41275;SDS011;27010;47.718;12.912;2023-04-24T05:07:35;1.80;;;0.80;;
41275;SDS011;27010;47.718;12.912;2023-04-24T05:10:37;0.50;;;0.43;;
41275;SDS011;27010;47.718;12.912;2023-04-24T05:13:39;1.27;;;0.50;;
41275;SDS011;27010;47.718;12.912;2023-04-24T05:16:41;2.33;;;0.40;;
41275;SDS011;27010;47.718;12.912;2023-04-24T05:19:44;1.37;;;0.53;;
41275;SDS011;27010;47.718;12.912;2023-04-24T05:22:47;1.03;;;0.40;;
41275;SDS011;27010;47.718;12.912;2023-04-24T05:25:49;0.60;;;0.50;;
41275;SDS011;27010;47.718;12.912;2023-04-24T05:28:51;0.50;;;0.40;;
41275;SDS011;27010;47.718;12.912;2023-04-24T05:31:53;2.33;;;0.50;;
41275;SDS011;27010;47.718;12.912;2023-04-24T05:34:56;1.57;;;0.50;;
41275;SDS011;27010;47.718;12.912;2023-04-24T05:37:58;0.40;;;0.30;;
41275;SDS011;27010;47.718;12.912;2023-04-24T05:40:59;3.83;;;0.53;;
41275;SDS011;27010;47.718;12.912;2023-04-24T05:44:02;1.37;;;0.30;;
41275;SDS011;27010;47.718;12.912;2023-04-24T05:47:04;1.30;;;0.50;;
41275;SDS011;27010;47.718;12.912;2023-04-24T05:50:06;6.10;;;0.50;;
41275;SDS011;27010;47.718;12.912;2023-04-24T05:53:08;0.60;;;0.30;;
41275;SDS011;27010;47.718;12.912;2023-04-24T05:56:12;1.63;;;0.40;;
41275;SDS011;27010;47.718;12.912;2023-04-24T05:59:14;1.53;;;0.47;;
41275;SDS011;27010;47.718;12.912;2023-04-24T06:02:16;1.60;;;0.30;;
41275;SDS011;27010;47.718;12.912;2023-04-24T06:05:19;0.60;;;0.40;;
41275;SDS011;27010;47.718;12.912;2023-04-24T06:08:21;2.10;;;0.40;;
41275;SDS011;27010;47.718;12.912;2023-04-24T06:11:23;0.87;;;0.50;;
41275;SDS011;27010;47.718;12.912;2023-04-24T06:14:26;2.20;;;0.43;;
41275;SDS011;27010;47.718;12.912;2023-04-24T06:17:28;0.77;;;0.30;;
41275;SDS011;27010;47.718;12.912;2023-04-24T06:20:30;1.80;;;0.30;;
41275;SDS011;27010;47.718;12.912;2023-04-24T06:23:32;0.97;;;0.40;;
41275;SDS011;27010;47.718;12.912;2023-04-24T06:26:34;0.40;;;0.20;;
41275;SDS011;27010;47.718;12.912;2023-04-24T06:29:37;1.53;;;0.30;;
41275;SDS011;27010;47.718;12.912;2023-04-24T06:32:39;0.67;;;0.30;;
41275;SDS011;27010;47.718;12.912;2023-04-24T06:35:41;0.87;;;0.30;;
41275;SDS011;27010;47.718;12.912;2023-04-24T06:38:43;2.97;;;0.70;;
41275;SDS011;27010;47.718;12.912;2023-04-24T06:41:45;1.03;;;0.40;;
41275;SDS011;27010;47.718;12.912;2023-04-24T06:44:48;0.77;;;0.27;;
41275;SDS011;27010;47.718;12.912;2023-04-24T06:47:49;1.97;;;0.50;;
41275;SDS011;27010;47.718;12.912;2023-04-24T06:50:52;2.70;;;0.40;;
41275;SDS011;27010;47.718;12.912;2023-04-24T06:53:54;0.30;;;0.20;;
41275;SDS011;27010;47.718;12.912;2023-04-24T06:56:58;0.83;;;0.30;;
41275;SDS011;27010;47.718;12.912;2023-04-24T07:00:02;0.70;;;0.40;;
41275;SDS011;27010;47.718;12.912;2023-04-24T07:03:07;0.30;;;0.30;;
41275;SDS011;27010;47.718;12.912;2023-04-24T07:06:09;0.30;;;0.27;;
41275;SDS011;27010;47.718;12.912;2023-04-24T07:09:12;0.87;;;0.30;;
41275;SDS011;27010;47.718;12.912;2023-04-24T07:12:20;0.70;;;0.33;;
41275;SDS011;27010;47.718;12.912;2023-04-24T07:15:23;2.13;;;0.40;;
41275;SDS011;27010;47.718;12.912;2023-04-24T07:18:25;0.90;;;0.40;;
41275;SDS011;27010;47.718;12.912;2023-04-24T07:21:27;0.47;;;0.40;;
41275;SDS011;27010;47.718;12.912;2023-04-24T07:24:29;0.70;;;0.20;;
41275;SDS011;27010;47.718;12.912;2023-04-24T07:27:34;0.70;;;0.30;;
41275;SDS011;27010;47.718;12.912;2023-04-24T07:30:37;0.40;;;0.23;;
41275;SDS011;27010;47.718;12.912;2023-04-24T07:33:39;1.67;;;0.40;;
41275;SDS011;27010;47.718;12.912;2023-04-24T07:36:41;0.97;;;0.40;;
41275;SDS011;27010;47.718;12.912;2023-04-24T07:39:43;1.03;;;0.30;;
41275;SDS011;27010;47.718;12.912;2023-04-24T07:42:46;2.20;;;0.30;;
41275;SDS011;27010;47.718;12.912;2023-04-24T07:45:50;0.40;;;0.30;;
41275;SDS011;27010;47.718;12.912;2023-04-24T07:48:52;2.43;;;0.43;;
41275;SDS011;27010;47.718;12.912;2023-04-24T07:52:12;0.73;;;0.20;;
41275;SDS011;27010;47.718;12.912;2023-04-24T07:55:14;0.73;;;0.30;;
41275;SDS011;27010;47.718;12.912;2023-04-24T07:58:16;0.40;;;0.30;;
41275;SDS011;27010;47.718;12.912;2023-04-24T08:01:17;0.53;;;0.40;;
41275;SDS011;27010;47.718;12.912;2023-04-24T08:04:19;0.30;;;0.30;;
41275;SDS011;27010;47.718;12.912;2023-04-24T08:07:23;0.43;;;0.30;;
41275;SDS011;27010;47.718;12.912;2023-04-24T08:10:25;0.60;;;0.60;;
41275;SDS011;27010;47.718;12.912;2023-04-24T08:13:27;1.03;;;0.70;;
41275;SDS011;27010;47.718;12.912;2023-04-24T08:16:29;0.30;;;0.30;;
41275;SDS011;27010;47.718;12.912;2023-04-24T08:19:31;2.10;;;0.20;;
41275;SDS011;27010;47.718;12.912;2023-04-24T08:22:33;0.30;;;0.30;;
41275;SDS011;27010;47.718;12.912;2023-04-24T08:25:35;0.40;;;0.40;;
41275;SDS011;27010;47.718;12.912;2023-04-24T08:28:37;0.40;;;0.37;;
41275;SDS011;27010;47.718;12.912;2023-04-24T08:31:40;0.50;;;0.40;;
41275;SDS011;27010;47.718;12.912;2023-04-24T08:34:42;0.20;;;0.20;;
41275;SDS011;27010;47.718;12.912;2023-04-24T08:37:43;0.20;;;0.20;;
41275;SDS011;27010;47.718;12.912;2023-04-24T08:40:47;0.53;;;0.30;;
41275;SDS011;27010;47.718;12.912;2023-04-24T08:43:52;0.50;;;0.20;;
41275;SDS011;27010;47.718;12.912;2023-04-24T08:46:55;0.67;;;0.50;;
41275;SDS011;27010;47.718;12.912;2023-04-24T08:49:57;2.37;;;2.00;;
41275;SDS011;27010;47.718;12.912;2023-04-24T08:53:00;2.20;;;0.50;;
41275;SDS011;27010;47.718;12.912;2023-04-24T08:56:05;1.70;;;0.70;;
41275;SDS011;27010;47.718;12.912;2023-04-24T08:59:08;0.37;;;0.37;;
41275;SDS011;27010;47.718;12.912;2023-04-24T09:02:11;1.87;;;0.20;;
41275;SDS011;27010;47.718;12.912;2023-04-24T09:05:17;0.20;;;0.20;;
41275;SDS011;27010;47.718;12.912;2023-04-24T09:08:20;0.23;;;0.20;;
41275;SDS011;27010;47.718;12.912;2023-04-24T09:11:26;0.50;;;0.20;;
41275;SDS011;27010;47.718;12.912;2023-04-24T09:14:28;0.50;;;0.50;;
41275;SDS011;27010;47.718;12.912;2023-04-24T09:17:33;1.90;;;0.57;;
41275;SDS011;27010;47.718;12.912;2023-04-24T09:24:04;2.10;;;0.30;;
41275;SDS011;27010;47.718;12.912;2023-04-24T09:27:07;0.20;;;0.20;;
41275;SDS011;27010;47.718;12.912;2023-04-24T09:30:12;0.50;;;0.30;;
41275;SDS011;27010;47.718;12.912;2023-04-24T09:33:14;0.47;;;0.30;;
41275;SDS011;27010;47.718;12.912;2023-04-24T09:36:17;1.00;;;0.80;;
41275;SDS011;27010;47.718;12.912;2023-04-24T09:39:19;3.40;;;0.80;;
41275;SDS011;27010;47.718;12.912;2023-04-24T09:42:21;1.00;;;0.80;;
41275;SDS011;27010;47.718;12.912;2023-04-24T09:45:37;0.90;;;0.53;;
41275;SDS011;27010;47.718;12.912;2023-04-24T09:48:40;0.87;;;0.50;;
41275;SDS011;27010;47.718;12.912;2023-04-24T09:51:42;1.70;;;0.40;;
41275;SDS011;27010;47.718;12.912;2023-04-24T09:54:46;0.30;;;0.30;;
41275;SDS011;27010;47.718;12.912;2023-04-24T09:57:58;2.03;;;1.73;;
41275;SDS011;27010;47.718;12.912;2023-04-24T10:01:06;1.93;;;0.40;;
41275;SDS011;27010;47.718;12.912;2023-04-24T10:04:14;0.30;;;0.30;;
41275;SDS011;27010;47.718;12.912;2023-04-24T10:07:18;0.60;;;0.40;;
41275;SDS011;27010;47.718;12.912;2023-04-24T10:10:20;0.27;;;0.27;;
41275;SDS011;27010;47.718;12.912;2023-04-24T10:13:23;0.20;;;0.20;;
41275;SDS011;27010;47.718;12.912;2023-04-24T10:16:25;0.87;;;0.40;;
41275;SDS011;27010;47.718;12.912;2023-04-24T10:19:28;1.53;;;0.50;;
41275;SDS011;27010;47.718;12.912;2023-04-24T10:22:31;0.20;;;0.20;;
41275;SDS011;27010;47.718;12.912;2023-04-24T10:25:34;0.20;;;0.20;;
41275;SDS011;27010;47.718;12.912;2023-04-24T10:28:37;0.33;;;0.30;;
41275;SDS011;27010;47.718;12.912;2023-04-24T10:31:39;0.90;;;0.40;;
41275;SDS011;27010;47.718;12.912;2023-04-24T10:34:42;3.17;;;0.40;;
41275;SDS011;27010;47.718;12.912;2023-04-24T10:37:53;2.17;;;1.20;;
41275;SDS011;27010;47.718;12.912;2023-04-24T10:40:58;0.63;;;0.53;;
41275;SDS011;27010;47.718;12.912;2023-04-24T10:44:12;1.07;;;0.40;;
41275;SDS011;27010;47.718;12.912;2023-04-24T10:47:15;0.40;;;0.40;;
41275;SDS011;27010;47.718;12.912;2023-04-24T10:50:17;0.97;;;0.63;;
41275;SDS011;27010;47.718;12.912;2023-04-24T10:53:24;0.97;;;0.70;;
41275;SDS011;27010;47.718;12.912;2023-04-24T10:56:29;0.40;;;0.40;;
41275;SDS011;27010;47.718;12.912;2023-04-24T10:59:35;0.73;;;0.30;;
41275;SDS011;27010;47.718;12.912;2023-04-24T11:02:39;0.90;;;0.30;;
41275;SDS011;27010;47.718;12.912;2023-04-24T11:05:49;0.50;;;0.50;;
41275;SDS011;27010;47.718;12.912;2023-04-24T11:09:09;0.43;;;0.30;;
41275;SDS011;27010;47.718;12.912;2023-04-24T11:12:14;0.37;;;0.37;;
41275;SDS011;27010;47.718;12.912;2023-04-24T11:15:16;0.40;;;0.40;;
41275;SDS011;27010;47.718;12.912;2023-04-24T11:18:21;0.60;;;0.60;;
41275;SDS011;27010;47.718;12.912;2023-04-24T11:21:25;0.87;;;0.63;;
41275;SDS011;27010;47.718;12.912;2023-04-24T11:24:49;1.43;;;0.33;;
41275;SDS011;27010;47.718;12.912;2023-04-24T11:28:02;1.93;;;0.30;;
41275;SDS011;27010;47.718;12.912;2023-04-24T11:34:57;0.70;;;0.60;;
41275;SDS011;27010;47.718;12.912;2023-04-24T11:38:02;0.40;;;0.30;;
41275;SDS011;27010;47.718;12.912;2023-04-24T11:41:24;0.47;;;0.47;;
41275;SDS011;27010;47.718;12.912;2023-04-24T11:44:27;0.50;;;0.50;;
41275;SDS011;27010;47.718;12.912;2023-04-24T11:47:30;0.53;;;0.43;;
41275;SDS011;27010;47.718;12.912;2023-04-24T11:50:35;0.53;;;0.53;;
41275;SDS011;27010;47.718;12.912;2023-04-24T11:53:38;1.50;;;0.60;;
41275;SDS011;27010;47.718;12.912;2023-04-24T11:56:44;1.10;;;0.47;;
41275;SDS011;27010;47.718;12.912;2023-04-24T11:59:46;1.93;;;0.63;;
41275;SDS011;27010;47.718;12.912;2023-04-24T12:02:49;1.47;;;0.90;;
41275;SDS011;27010;47.718;12.912;2023-04-24T12:05:52;2.23;;;0.80;;
41275;SDS011;27010;47.718;12.912;2023-04-24T12:08:54;0.90;;;0.60;;
41275;SDS011;27010;47.718;12.912;2023-04-24T12:12:05;1.50;;;0.60;;
41275;SDS011;27010;47.718;12.912;2023-04-24T12:15:08;0.40;;;0.40;;
41275;SDS011;27010;47.718;12.912;2023-04-24T12:18:11;0.70;;;0.50;;
41275;SDS011;27010;47.718;12.912;2023-04-24T12:21:24;1.00;;;0.50;;
41275;SDS011;27010;47.718;12.912;2023-04-24T12:24:28;0.80;;;0.60;;
41275;SDS011;27010;47.718;12.912;2023-04-24T12:27:32;0.90;;;0.50;;
41275;SDS011;27010;47.718;12.912;2023-04-24T12:30:35;0.93;;;0.50;;
41275;SDS011;27010;47.718;12.912;2023-04-24T12:33:50;1.07;;;0.70;;
41275;SDS011;27010;47.718;12.912;2023-04-24T12:36:52;0.50;;;0.50;;
41275;SDS011;27010;47.718;12.912;2023-04-24T12:39:58;0.70;;;0.50;;
41275;SDS011;27010;47.718;12.912;2023-04-24T12:43:13;1.03;;;0.50;;
41275;SDS011;27010;47.718;12.912;2023-04-24T12:46:19;1.80;;;0.50;;
41275;SDS011;27010;47.718;12.912;2023-04-24T12:49:23;0.50;;;0.50;;
41275;SDS011;27010;47.718;12.912;2023-04-24T12:52:25;1.33;;;0.40;;
41275;SDS011;27010;47.718;12.912;2023-04-24T12:55:28;0.97;;;0.60;;
41275;SDS011;27010;47.718;12.912;2023-04-24T12:58:30;0.80;;;0.67;;
41275;SDS011;27010;47.718;12.912;2023-04-24T13:01:32;1.13;;;0.53;;
41275;SDS011;27010;47.718;12.912;2023-04-24T13:04:34;0.70;;;0.57;;
41275;SDS011;27010;47.718;12.912;2023-04-24T13:07:36;1.77;;;0.53;;
41275;SDS011;27010;47.718;12.912;2023-04-24T13:10:38;1.53;;;0.60;;
41275;SDS011;27010;47.718;12.912;2023-04-24T13:13:41;1.20;;;0.50;;
41275;SDS011;27010;47.718;12.912;2023-04-24T13:16:43;1.40;;;0.60;;
41275;SDS011;27010;47.718;12.912;2023-04-24T13:19:46;0.80;;;0.60;;
41275;SDS011;27010;47.718;12.912;2023-04-24T13:22:48;1.53;;;0.60;;
41275;SDS011;27010;47.718;12.912;2023-04-24T13:25:52;0.83;;;0.80;;
41275;SDS011;27010;47.718;12.912;2023-04-24T13:28:58;0.30;;;0.30;;
41275;SDS011;27010;47.718;12.912;2023-04-24T13:32:02;0.70;;;0.60;;
41275;SDS011;27010;47.718;12.912;2023-04-24T13:35:04;0.60;;;0.53;;
41275;SDS011;27010;47.718;12.912;2023-04-24T13:38:06;0.83;;;0.60;;
41275;SDS011;27010;47.718;12.912;2023-04-24T13:41:11;1.83;;;0.70;;
41275;SDS011;27010;47.718;12.912;2023-04-24T13:44:13;1.73;;;0.80;;
41275;SDS011;27010;47.718;12.912;2023-04-24T13:47:16;0.60;;;0.50;;
41275;SDS011;27010;47.718;12.912;2023-04-24T13:50:19;0.87;;;0.50;;
41275;SDS011;27010;47.718;12.912;2023-04-24T13:53:21;0.53;;;0.40;;
41275;SDS011;27010;47.718;12.912;2023-04-24T13:56:23;0.90;;;0.40;;
41275;SDS011;27010;47.718;12.912;2023-04-24T13:59:25;0.47;;;0.47;;
41275;SDS011;27010;47.718;12.912;2023-04-24T14:02:28;0.77;;;0.50;;
41275;SDS011;27010;47.718;12.912;2023-04-24T14:05:30;0.67;;;0.60;;
41275;SDS011;27010;47.718;12.912;2023-04-24T14:08:32;0.67;;;0.50;;
41275;SDS011;27010;47.718;12.912;2023-04-24T14:11:34;0.47;;;0.47;;
41275;SDS011;27010;47.718;12.912;2023-04-24T14:14:36;0.90;;;0.50;;
41275;SDS011;27010;47.718;12.912;2023-04-24T14:17:38;0.70;;;0.50;;
41275;SDS011;27010;47.718;12.912;2023-04-24T14:20:40;1.67;;;0.63;;
41275;SDS011;27010;47.718;12.912;2023-04-24T14:23:42;1.43;;;0.60;;
41275;SDS011;27010;47.718;12.912;2023-04-24T14:26:45;1.73;;;0.53;;
41275;SDS011;27010;47.718;12.912;2023-04-24T14:29:47;2.77;;;0.60;;
41275;SDS011;27010;47.718;12.912;2023-04-24T14:32:49;1.47;;;0.90;;
41275;SDS011;27010;47.718;12.912;2023-04-24T14:35:52;0.70;;;0.60;;
41275;SDS011;27010;47.718;12.912;2023-04-24T14:38:54;1.20;;;0.67;;
41275;SDS011;27010;47.718;12.912;2023-04-24T14:41:56;0.83;;;0.83;;
41275;SDS011;27010;47.718;12.912;2023-04-24T14:44:59;0.70;;;0.70;;
41275;SDS011;27010;47.718;12.912;2023-04-24T14:48:01;1.60;;;1.00;;
41275;SDS011;27010;47.718;12.912;2023-04-24T14:51:03;2.00;;;0.70;;
41275;SDS011;27010;47.718;12.912;2023-04-24T14:54:06;0.77;;;0.77;;
41275;SDS011;27010;47.718;12.912;2023-04-24T14:57:08;2.13;;;0.90;;
41275;SDS011;27010;47.718;12.912;2023-04-24T15:00:11;1.43;;;0.83;;
41275;SDS011;27010;47.718;12.912;2023-04-24T15:03:15;2.50;;;0.90;;
41275;SDS011;27010;47.718;12.912;2023-04-24T15:06:19;1.37;;;0.83;;
41275;SDS011;27010;47.718;12.912;2023-04-24T15:09:22;2.30;;;0.90;;
41275;SDS011;27010;47.718;12.912;2023-04-24T15:12:25;1.43;;;0.90;;
41275;SDS011;27010;47.718;12.912;2023-04-24T15:15:27;1.90;;;1.17;;
41275;SDS011;27010;47.718;12.912;2023-04-24T15:18:29;2.43;;;1.00;;
41275;SDS011;27010;47.718;12.912;2023-04-24T15:21:32;3.20;;;1.20;;
41275;SDS011;27010;47.718;12.912;2023-04-24T15:24:34;2.33;;;1.27;;
41275;SDS011;27010;47.718;12.912;2023-04-24T15:27:42;1.23;;;1.00;;
41275;SDS011;27010;47.718;12.912;2023-04-24T15:30:46;1.10;;;1.00;;
41275;SDS011;27010;47.718;12.912;2023-04-24T15:33:51;1.67;;;1.10;;
41275;SDS011;27010;47.718;12.912;2023-04-24T15:36:53;0.70;;;0.70;;
41275;SDS011;27010;47.718;12.912;2023-04-24T15:39:55;0.97;;;0.93;;
41275;SDS011;27010;47.718;12.912;2023-04-24T15:42:57;0.90;;;0.80;;
41275;SDS011;27010;47.718;12.912;2023-04-24T15:46:00;1.33;;;1.10;;
41275;SDS011;27010;47.718;12.912;2023-04-24T15:49:04;1.30;;;0.80;;
41275;SDS011;27010;47.718;12.912;2023-04-24T15:52:06;1.90;;;1.07;;
41275;SDS011;27010;47.718;12.912;2023-04-24T15:55:11;0.60;;;0.60;;
41275;SDS011;27010;47.718;12.912;2023-04-24T15:58:13;1.00;;;0.90;;
41275;SDS011;27010;47.718;12.912;2023-04-24T16:01:15;1.07;;;0.80;;
41275;SDS011;27010;47.718;12.912;2023-04-24T16:04:17;1.30;;;0.60;;
41275;SDS011;27010;47.718;12.912;2023-04-24T16:07:19;2.73;;;0.87;;
41275;SDS011;27010;47.718;12.912;2023-04-24T16:10:21;1.03;;;0.80;;
41275;SDS011;27010;47.718;12.912;2023-04-24T16:13:23;0.97;;;0.87;;
41275;SDS011;27010;47.718;12.912;2023-04-24T16:16:26;2.67;;;1.20;;
41275;SDS011;27010;47.718;12.912;2023-04-24T16:19:28;1.80;;;1.00;;
41275;SDS011;27010;47.718;12.912;2023-04-24T16:22:33;3.77;;;0.90;;
41275;SDS011;27010;47.718;12.912;2023-04-24T16:25:35;1.40;;;1.10;;
41275;SDS011;27010;47.718;12.912;2023-04-24T16:28:37;1.57;;;1.03;;
41275;SDS011;27010;47.718;12.912;2023-04-24T16:31:41;1.30;;;1.20;;
41275;SDS011;27010;47.718;12.912;2023-04-24T16:34:43;1.50;;;1.10;;
41275;SDS011;27010;47.718;12.912;2023-04-24T16:37:45;2.43;;;1.40;;
41275;SDS011;27010;47.718;12.912;2023-04-24T16:40:47;4.17;;;1.00;;
41275;SDS011;27010;47.718;12.912;2023-04-24T16:43:49;4.70;;;1.20;;
41275;SDS011;27010;47.718;12.912;2023-04-24T16:46:51;2.60;;;1.30;;
41275;SDS011;27010;47.718;12.912;2023-04-24T16:49:54;2.10;;;1.33;;
41275;SDS011;27010;47.718;12.912;2023-04-24T16:52:56;3.97;;;1.93;;
41275;SDS011;27010;47.718;12.912;2023-04-24T16:55:58;2.23;;;1.40;;
41275;SDS011;27010;47.718;12.912;2023-04-24T16:59:00;2.77;;;1.23;;
41275;SDS011;27010;47.718;12.912;2023-04-24T17:02:02;3.27;;;1.37;;
41275;SDS011;27010;47.718;12.912;2023-04-24T17:05:04;3.27;;;1.90;;
41275;SDS011;27010;47.718;12.912;2023-04-24T17:08:07;2.27;;;1.50;;
41275;SDS011;27010;47.718;12.912;2023-04-24T17:11:09;2.57;;;1.53;;
41275;SDS011;27010;47.718;12.912;2023-04-24T17:14:11;4.10;;;1.30;;
41275;SDS011;27010;47.718;12.912;2023-04-24T17:17:13;1.73;;;1.00;;
41275;SDS011;27010;47.718;12.912;2023-04-24T17:20:16;2.77;;;1.07;;
41275;SDS011;27010;47.718;12.912;2023-04-24T17:23:24;2.70;;;1.33;;
41275;SDS011;27010;47.718;12.912;2023-04-24T17:26:27;2.77;;;1.33;;
41275;SDS011;27010;47.718;12.912;2023-04-24T17:29:29;1.30;;;1.03;;
41275;SDS011;27010;47.718;12.912;2023-04-24T17:32:32;2.17;;;1.33;;
41275;SDS011;27010;47.718;12.912;2023-04-24T17:35:34;1.77;;;1.17;;
41275;SDS011;27010;47.718;12.912;2023-04-24T17:38:36;1.73;;;1.20;;
41275;SDS011;27010;47.718;12.912;2023-04-24T17:41:38;1.07;;;0.97;;
41275;SDS011;27010;47.718;12.912;2023-04-24T17:44:41;2.90;;;1.30;;
41275;SDS011;27010;47.718;12.912;2023-04-24T17:47:43;1.97;;;1.27;;
41275;SDS011;27010;47.718;12.912;2023-04-24T17:50:45;2.30;;;1.30;;
41275;SDS011;27010;47.718;12.912;2023-04-24T17:53:47;2.80;;;1.13;;
41275;SDS011;27010;47.718;12.912;2023-04-24T17:56:49;1.77;;;1.20;;
41275;SDS011;27010;47.718;12.912;2023-04-24T17:59:53;4.60;;;2.33;;
41275;SDS011;27010;47.718;12.912;2023-04-24T18:02:55;2.70;;;1.50;;
41275;SDS011;27010;47.718;12.912;2023-04-24T18:06:04;4.80;;;1.43;;
41275;SDS011;27010;47.718;12.912;2023-04-24T18:09:07;1.77;;;1.27;;
41275;SDS011;27010;47.718;12.912;2023-04-24T18:12:09;5.30;;;2.40;;